sensor_id;sensor_type;location;lat;lon;timestamp;pressure;altitude;pressure_sealevel;temperature;humidity
46291;BME280;32023;44.444;26.006;2023-04-10T00:01:27;100830.63;;;8.56;66.38
46291;BME280;32023;44.444;26.006;2023-04-10T00:04:12;100826.00;;;8.56;66.37
46291;BME280;32023;44.444;26.006;2023-04-10T00:06:45;100827.91;;;8.56;66.50
46291;BME280;32023;44.444;26.006;2023-04-10T00:09:19;100810.81;;;8.54;66.34
46291;BME280;32023;44.444;26.006;2023-04-10T00:11:52;100825.63;;;8.53;66.31
46291;BME280;32023;44.444;26.006;2023-04-10T00:14:27;100824.78;;;8.52;66.45
46291;BME280;32023;44.444;26.006;2023-04-10T00:17:16;100821.44;;;8.50;66.72
46291;BME280;32023;44.444;26.006;2023-04-10T00:19:50;100818.09;;;8.48;66.62
46291;BME280;32023;44.444;26.006;2023-04-10T00:22:35;100808.81;;;8.49;66.96
46291;BME280;32023;44.444;26.006;2023-04-10T00:25:08;100812.59;;;8.48;66.90
46291;BME280;32023;44.444;26.006;2023-04-10T00:27:55;100809.13;;;8.41;66.98
46291;BME280;32023;44.444;26.006;2023-04-10T00:30:24;100803.88;;;8.40;67.03
46291;BME280;32023;44.444;26.006;2023-04-10T00:33:01;100800.97;;;8.35;67.25
46291;BME280;32023;44.444;26.006;2023-04-10T00:35:28;100798.72;;;8.32;67.25
46291;BME280;32023;44.444;26.006;2023-04-10T00:37:54;100790.09;;;8.28;67.31
46291;BME280;32023;44.444;26.006;2023-04-10T00:40:21;100793.06;;;8.27;67.48
46291;BME280;32023;44.444;26.006;2023-04-10T00:42:49;100788.66;;;8.26;67.42
46291;BME280;32023;44.444;26.006;2023-04-10T00:45:16;100784.22;;;8.24;67.60
46291;BME280;32023;44.444;26.006;2023-04-10T00:47:46;100789.72;;;8.24;67.49
46291;BME280;32023;44.444;26.006;2023-04-10T00:50:26;100780.06;;;8.22;67.35
46291;BME280;32023;44.444;26.006;2023-04-10T00:52:53;100783.84;;;8.21;67.13
46291;BME280;32023;44.444;26.006;2023-04-10T00:55:20;100784.94;;;8.20;67.31
46291;BME280;32023;44.444;26.006;2023-04-10T00:57:48;100782.44;;;8.18;67.45
46291;BME280;32023;44.444;26.006;2023-04-10T01:00:15;100779.69;;;8.18;67.45
46291;BME280;32023;44.444;26.006;2023-04-10T01:02:45;100778.84;;;8.18;67.41
46291;BME280;32023;44.444;26.006;2023-04-10T01:05:16;100768.34;;;8.15;67.50
46291;BME280;32023;44.444;26.006;2023-04-10T01:10:34;100773.09;;;8.08;67.45
46291;BME280;32023;44.444;26.006;2023-04-10T01:13:35;100770.22;;;8.03;67.51
46291;BME280;32023;44.444;26.006;2023-04-10T01:16:30;100760.19;;;7.97;67.72
46291;BME280;32023;44.444;26.006;2023-04-10T01:19:08;100751.34;;;7.95;67.82
46291;BME280;32023;44.444;26.006;2023-04-10T01:21:47;100751.81;;;7.92;67.89
46291;BME280;32023;44.444;26.006;2023-04-10T01:30:16;100756.25;;;7.74;68.59
46291;BME280;32023;44.444;26.006;2023-04-10T01:32:49;100759.25;;;7.73;68.88
46291;BME280;32023;44.444;26.006;2023-04-10T01:38:21;100752.88;;;7.61;68.81
46291;BME280;32023;44.444;26.006;2023-04-10T01:40:55;100759.78;;;7.63;69.08
46291;BME280;32023;44.444;26.006;2023-04-10T01:43:28;100763.31;;;7.34;69.05
46291;BME280;32023;44.444;26.006;2023-04-10T01:46:03;100757.28;;;7.62;69.18
46291;BME280;32023;44.444;26.006;2023-04-10T01:48:34;100755.59;;;7.61;69.29
46291;BME280;32023;44.444;26.006;2023-04-10T01:51:04;100755.13;;;7.64;69.27
46291;BME280;32023;44.444;26.006;2023-04-10T01:53:36;100750.97;;;7.61;69.38
46291;BME280;32023;44.444;26.006;2023-04-10T01:59:30;100742.97;;;7.60;69.30
46291;BME280;32023;44.444;26.006;2023-04-10T02:02:00;100747.38;;;7.61;69.45
46291;BME280;32023;44.444;26.006;2023-04-10T02:04:27;100750.13;;;7.61;69.09
46291;BME280;32023;44.444;26.006;2023-04-10T02:07:10;100741.69;;;7.62;69.25
46291;BME280;32023;44.444;26.006;2023-04-10T02:13:06;100733.31;;;7.57;69.27
46291;BME280;32023;44.444;26.006;2023-04-10T02:15:45;100738.16;;;7.55;69.27
46291;BME280;32023;44.444;26.006;2023-04-10T02:18:17;100737.56;;;7.53;69.27
46291;BME280;32023;44.444;26.006;2023-04-10T02:20:46;100738.63;;;7.52;69.69
46291;BME280;32023;44.444;26.006;2023-04-10T02:23:19;100746.03;;;7.52;69.49
46291;BME280;32023;44.444;26.006;2023-04-10T02:25:48;100733.03;;;7.47;69.47
46291;BME280;32023;44.444;26.006;2023-04-10T02:28:14;100742.53;;;7.45;69.73
46291;BME280;32023;44.444;26.006;2023-04-10T02:30:51;100743.84;;;7.42;69.76
46291;BME280;32023;44.444;26.006;2023-04-10T02:33:30;100738.19;;;7.37;69.89
46291;BME280;32023;44.444;26.006;2023-04-10T02:36:01;100738.66;;;7.34;69.80
46291;BME280;32023;44.444;26.006;2023-04-10T02:38:30;100736.19;;;7.33;70.17
46291;BME280;32023;44.444;26.006;2023-04-10T02:40:58;100742.34;;;7.28;70.17
46291;BME280;32023;44.444;26.006;2023-04-10T02:43:38;100744.69;;;7.24;70.09
46291;BME280;32023;44.444;26.006;2023-04-10T02:46:11;100735.00;;;7.22;70.28
46291;BME280;32023;44.444;26.006;2023-04-10T02:48:40;100741.59;;;7.21;70.48
46291;BME280;32023;44.444;26.006;2023-04-10T02:51:08;100743.69;;;7.19;70.62
46291;BME280;32023;44.444;26.006;2023-04-10T02:53:34;100739.06;;;7.19;70.67
46291;BME280;32023;44.444;26.006;2023-04-10T02:56:04;100735.09;;;7.15;70.82
46291;BME280;32023;44.444;26.006;2023-04-10T02:58:50;100734.72;;;7.12;70.80
46291;BME280;32023;44.444;26.006;2023-04-10T03:01:22;100731.59;;;7.08;71.23
46291;BME280;32023;44.444;26.006;2023-04-10T03:03:48;100737.53;;;7.05;71.39
46291;BME280;32023;44.444;26.006;2023-04-10T03:06:19;100735.47;;;7.01;71.34
46291;BME280;32023;44.444;26.006;2023-04-10T03:08:47;100739.72;;;6.97;71.55
46291;BME280;32023;44.444;26.006;2023-04-10T03:14:18;100739.81;;;6.90;71.65
46291;BME280;32023;44.444;26.006;2023-04-10T03:16:51;100737.28;;;6.89;71.94
46291;BME280;32023;44.444;26.006;2023-04-10T03:19:18;100745.50;;;6.89;71.93
46291;BME280;32023;44.444;26.006;2023-04-10T03:21:47;100742.56;;;6.90;71.79
46291;BME280;32023;44.444;26.006;2023-04-10T03:24:27;100737.28;;;6.89;71.89
46291;BME280;32023;44.444;26.006;2023-04-10T03:26:56;100742.16;;;6.87;72.33
46291;BME280;32023;44.444;26.006;2023-04-10T03:29:26;100738.34;;;6.88;72.11
46291;BME280;32023;44.444;26.006;2023-04-10T03:31:57;100738.81;;;6.85;72.36
46291;BME280;32023;44.444;26.006;2023-04-10T03:34:24;100737.56;;;6.81;72.61
46291;BME280;32023;44.444;26.006;2023-04-10T03:36:51;100750.66;;;6.78;72.41
46291;BME280;32023;44.444;26.006;2023-04-10T03:39:23;100750.03;;;6.76;72.25
46291;BME280;32023;44.444;26.006;2023-04-10T03:41:49;100746.72;;;6.74;72.50
46291;BME280;32023;44.444;26.006;2023-04-10T03:44:21;100748.81;;;6.72;72.71
46291;BME280;32023;44.444;26.006;2023-04-10T03:47:03;100742.75;;;6.70;72.69
46291;BME280;32023;44.444;26.006;2023-04-10T03:49:40;100745.69;;;6.69;72.49
46291;BME280;32023;44.444;26.006;2023-04-10T03:52:06;100755.78;;;6.68;72.77
46291;BME280;32023;44.444;26.006;2023-04-10T03:54:33;100756.63;;;6.69;72.91
46291;BME280;32023;44.444;26.006;2023-04-10T03:57:00;100757.09;;;6.66;72.76
46291;BME280;32023;44.444;26.006;2023-04-10T03:59:36;100757.34;;;6.64;72.98
46291;BME280;32023;44.444;26.006;2023-04-10T04:02:03;100762.19;;;6.62;72.74
46291;BME280;32023;44.444;26.006;2023-04-10T04:04:30;100760.06;;;6.64;72.81
46291;BME280;32023;44.444;26.006;2023-04-10T04:06:56;100764.69;;;6.64;73.26
46291;BME280;32023;44.444;26.006;2023-04-10T04:09:34;100761.13;;;6.63;73.10
46291;BME280;32023;44.444;26.006;2023-04-10T04:12:02;100761.72;;;6.65;73.05
46291;BME280;32023;44.444;26.006;2023-04-10T04:14:28;100752.00;;;6.69;73.09
46291;BME280;32023;44.444;26.006;2023-04-10T04:16:55;100761.44;;;6.73;72.84
46291;BME280;32023;44.444;26.006;2023-04-10T04:19:21;100760.97;;;6.76;72.71
46291;BME280;32023;44.444;26.006;2023-04-10T04:21:48;100759.09;;;6.77;72.62
46291;BME280;32023;44.444;26.006;2023-04-10T04:24:24;100756.13;;;6.78;72.49
46291;BME280;32023;44.444;26.006;2023-04-10T04:27:00;100758.88;;;6.78;72.41
46291;BME280;32023;44.444;26.006;2023-04-10T04:29:31;100762.00;;;6.82;72.63
46291;BME280;32023;44.444;26.006;2023-04-10T04:32:01;100758.81;;;6.85;72.70
46291;BME280;32023;44.444;26.006;2023-04-10T04:34:28;100761.94;;;6.89;72.77
46291;BME280;32023;44.444;26.006;2023-04-10T04:36:58;100765.88;;;6.93;72.35
46291;BME280;32023;44.444;26.006;2023-04-10T04:39:30;100762.69;;;6.96;72.57
46291;BME280;32023;44.444;26.006;2023-04-10T04:41:56;100763.06;;;6.99;72.50
46291;BME280;32023;44.444;26.006;2023-04-10T04:44:25;100760.50;;;7.04;72.52
46291;BME280;32023;44.444;26.006;2023-04-10T04:46:58;100770.16;;;7.07;72.36
46291;BME280;32023;44.444;26.006;2023-04-10T04:49:33;100764.25;;;7.10;72.25
46291;BME280;32023;44.444;26.006;2023-04-10T04:52:01;100760.81;;;7.14;72.15
46291;BME280;32023;44.444;26.006;2023-04-10T04:54:29;100761.56;;;7.21;72.02
46291;BME280;32023;44.444;26.006;2023-04-10T04:56:56;100761.50;;;7.28;71.84
46291;BME280;32023;44.444;26.006;2023-04-10T04:59:22;100765.22;;;7.34;71.64
46291;BME280;32023;44.444;26.006;2023-04-10T05:01:55;100758.59;;;7.41;71.38
46291;BME280;32023;44.444;26.006;2023-04-10T05:04:25;100762.56;;;7.45;71.22
46291;BME280;32023;44.444;26.006;2023-04-10T05:06:52;100764.97;;;7.53;71.11
46291;BME280;32023;44.444;26.006;2023-04-10T05:09:19;100769.69;;;7.64;71.17
46291;BME280;32023;44.444;26.006;2023-04-10T05:11:47;100770.59;;;7.77;70.65
46291;BME280;32023;44.444;26.006;2023-04-10T05:14:18;100770.00;;;7.86;70.37
46291;BME280;32023;44.444;26.006;2023-04-10T05:16:51;100765.66;;;7.97;69.91
46291;BME280;32023;44.444;26.006;2023-04-10T05:19:18;100766.16;;;8.05;69.33
46291;BME280;32023;44.444;26.006;2023-04-10T05:21:44;100768.34;;;8.15;68.67
46291;BME280;32023;44.444;26.006;2023-04-10T05:24:11;100763.13;;;8.25;68.39
46291;BME280;32023;44.444;26.006;2023-04-10T05:26:37;100758.53;;;8.37;67.78
46291;BME280;32023;44.444;26.006;2023-04-10T05:29:04;100764.41;;;8.52;67.45
46291;BME280;32023;44.444;26.006;2023-04-10T05:31:30;100767.53;;;8.67;66.99
46291;BME280;32023;44.444;26.006;2023-04-10T05:33:56;100760.13;;;8.80;66.13
46291;BME280;32023;44.444;26.006;2023-04-10T05:36:25;100762.75;;;8.98;65.64
46291;BME280;32023;44.444;26.006;2023-04-10T05:38:51;100758.69;;;9.12;65.14
46291;BME280;32023;44.444;26.006;2023-04-10T05:41:18;100764.28;;;9.29;64.54
46291;BME280;32023;44.444;26.006;2023-04-10T05:43:44;100766.03;;;9.46;64.00
46291;BME280;32023;44.444;26.006;2023-04-10T05:46:10;100758.69;;;9.63;63.81
46291;BME280;32023;44.444;26.006;2023-04-10T05:48:37;100748.81;;;9.79;62.89
46291;BME280;32023;44.444;26.006;2023-04-10T05:51:04;100755.56;;;10.00;61.45
46291;BME280;32023;44.444;26.006;2023-04-10T05:53:31;100757.53;;;10.16;59.71
46291;BME280;32023;44.444;26.006;2023-04-10T05:55:58;100757.06;;;10.36;58.55
46291;BME280;32023;44.444;26.006;2023-04-10T05:58:25;100758.75;;;10.53;57.34
46291;BME280;32023;44.444;26.006;2023-04-10T06:00:52;100752.66;;;10.68;56.29
46291;BME280;32023;44.444;26.006;2023-04-10T06:03:18;100747.88;;;10.80;55.33
46291;BME280;32023;44.444;26.006;2023-04-10T06:05:45;100750.09;;;11.00;54.80
46291;BME280;32023;44.444;26.006;2023-04-10T06:08:13;100752.84;;;11.17;54.68
46291;BME280;32023;44.444;26.006;2023-04-10T06:10:40;100745.88;;;11.31;54.02
46291;BME280;32023;44.444;26.006;2023-04-10T06:13:06;100755.75;;;11.48;53.28
46291;BME280;32023;44.444;26.006;2023-04-10T06:15:33;100748.25;;;11.66;52.65
46291;BME280;32023;44.444;26.006;2023-04-10T06:18:02;100749.22;;;11.76;52.14
46291;BME280;32023;44.444;26.006;2023-04-10T06:20:28;100753.78;;;11.87;51.70
46291;BME280;32023;44.444;26.006;2023-04-10T06:22:55;100752.53;;;12.00;51.15
46291;BME280;32023;44.444;26.006;2023-04-10T06:25:21;100746.34;;;12.15;50.91
46291;BME280;32023;44.444;26.006;2023-04-10T06:27:47;100750.66;;;12.32;50.94
46291;BME280;32023;44.444;26.006;2023-04-10T06:30:14;100740.81;;;12.41;50.30
46291;BME280;32023;44.444;26.006;2023-04-10T06:32:40;100751.88;;;12.46;50.27
46291;BME280;32023;44.444;26.006;2023-04-10T06:35:07;100742.31;;;12.59;50.00
46291;BME280;32023;44.444;26.006;2023-04-10T06:37:36;100751.88;;;12.78;49.54
46291;BME280;32023;44.444;26.006;2023-04-10T06:40:06;100745.66;;;12.98;49.23
46291;BME280;32023;44.444;26.006;2023-04-10T06:42:33;100754.09;;;13.13;48.86
46291;BME280;32023;44.444;26.006;2023-04-10T06:45:00;100749.25;;;13.35;48.31
46291;BME280;32023;44.444;26.006;2023-04-10T06:47:26;100747.63;;;13.49;47.85
46291;BME280;32023;44.444;26.006;2023-04-10T06:49:53;100743.56;;;13.67;47.41
46291;BME280;32023;44.444;26.006;2023-04-10T06:52:19;100747.22;;;13.83;46.80
46291;BME280;32023;44.444;26.006;2023-04-10T06:54:46;100748.34;;;13.87;46.33
46291;BME280;32023;44.444;26.006;2023-04-10T06:57:12;100748.38;;;14.02;46.26
46291;BME280;32023;44.444;26.006;2023-04-10T06:59:42;100743.44;;;14.14;45.85
46291;BME280;32023;44.444;26.006;2023-04-10T07:02:12;100744.00;;;14.21;45.45
46291;BME280;32023;44.444;26.006;2023-04-10T07:04:38;100754.81;;;14.23;45.12
46291;BME280;32023;44.444;26.006;2023-04-10T07:07:05;100745.97;;;14.36;45.19
46291;BME280;32023;44.444;26.006;2023-04-10T07:09:39;100761.50;;;14.52;44.72
46291;BME280;32023;44.444;26.006;2023-04-10T07:12:06;100754.06;;;14.73;44.81
46291;BME280;32023;44.444;26.006;2023-04-10T07:14:33;100751.53;;;14.86;43.97
46291;BME280;32023;44.444;26.006;2023-04-10T07:17:02;100759.00;;;14.81;43.63
46291;BME280;32023;44.444;26.006;2023-04-10T07:19:29;100752.66;;;14.70;43.86
46291;BME280;32023;44.444;26.006;2023-04-10T07:21:58;100770.66;;;14.78;43.82
46291;BME280;32023;44.444;26.006;2023-04-10T07:24:24;100770.13;;;14.91;43.82
46291;BME280;32023;44.444;26.006;2023-04-10T07:26:51;100776.47;;;15.12;43.46
46291;BME280;32023;44.444;26.006;2023-04-10T07:29:18;100762.03;;;15.25;43.21
46291;BME280;32023;44.444;26.006;2023-04-10T07:31:45;100758.91;;;15.47;42.63
46291;BME280;32023;44.444;26.006;2023-04-10T07:34:11;100759.41;;;15.69;42.38
46291;BME280;32023;44.444;26.006;2023-04-10T07:36:37;100750.47;;;15.82;42.19
46291;BME280;32023;44.444;26.006;2023-04-10T07:39:04;100751.44;;;16.06;41.48
46291;BME280;32023;44.444;26.006;2023-04-10T07:41:30;100750.75;;;16.24;41.11
46291;BME280;32023;44.444;26.006;2023-04-10T07:43:59;100742.91;;;16.36;40.44
46291;BME280;32023;44.444;26.006;2023-04-10T07:46:29;100758.34;;;16.53;40.23
46291;BME280;32023;44.444;26.006;2023-04-10T07:48:55;100739.63;;;16.68;40.34
46291;BME280;32023;44.444;26.006;2023-04-10T07:51:22;100756.97;;;16.89;39.56
46291;BME280;32023;44.444;26.006;2023-04-10T07:53:48;100748.19;;;17.06;39.15
46291;BME280;32023;44.444;26.006;2023-04-10T07:56:16;100752.66;;;17.30;38.64
46291;BME280;32023;44.444;26.006;2023-04-10T07:58:43;100745.19;;;17.50;38.67
46291;BME280;32023;44.444;26.006;2023-04-10T08:01:09;100744.03;;;17.79;38.19
46291;BME280;32023;44.444;26.006;2023-04-10T08:03:44;100753.69;;;18.06;37.70
46291;BME280;32023;44.444;26.006;2023-04-10T08:06:11;100742.56;;;18.24;37.63
46291;BME280;32023;44.444;26.006;2023-04-10T08:08:41;100736.22;;;18.38;36.61
46291;BME280;32023;44.444;26.006;2023-04-10T08:11:31;100743.91;;;18.46;35.87
46291;BME280;32023;44.444;26.006;2023-04-10T08:14:00;100736.03;;;18.53;35.86
46291;BME280;32023;44.444;26.006;2023-04-10T08:16:29;100733.06;;;18.63;35.30
46291;BME280;32023;44.444;26.006;2023-04-10T08:18:59;100728.44;;;18.72;35.09
46291;BME280;32023;44.444;26.006;2023-04-10T08:21:27;100725.69;;;18.86;35.14
46291;BME280;32023;44.444;26.006;2023-04-10T08:23:54;100731.53;;;18.70;34.13
46291;BME280;32023;44.444;26.006;2023-04-10T08:26:24;100734.66;;;18.69;34.18
46291;BME280;32023;44.444;26.006;2023-04-10T08:28:52;100726.22;;;18.88;33.81
46291;BME280;32023;44.444;26.006;2023-04-10T08:31:22;100729.88;;;19.02;33.97
46291;BME280;32023;44.444;26.006;2023-04-10T08:33:49;100715.72;;;19.12;33.49
46291;BME280;32023;44.444;26.006;2023-04-10T08:36:17;100725.13;;;19.16;32.88
46291;BME280;32023;44.444;26.006;2023-04-10T08:38:44;100717.38;;;18.99;32.36
46291;BME280;32023;44.444;26.006;2023-04-10T08:41:11;100724.00;;;19.03;32.79
46291;BME280;32023;44.444;26.006;2023-04-10T08:43:38;100721.44;;;19.20;32.43
46291;BME280;32023;44.444;26.006;2023-04-10T08:46:04;100724.00;;;19.31;31.84
46291;BME280;32023;44.444;26.006;2023-04-10T08:48:44;100711.94;;;19.49;31.83
46291;BME280;32023;44.444;26.006;2023-04-10T08:51:16;100710.78;;;19.77;31.88
46291;BME280;32023;44.444;26.006;2023-04-10T08:53:44;100707.88;;;19.96;31.60
46291;BME280;32023;44.444;26.006;2023-04-10T08:56:16;100703.75;;;19.93;30.77
46291;BME280;32023;44.444;26.006;2023-04-10T08:58:43;100710.66;;;19.96;30.93
46291;BME280;32023;44.444;26.006;2023-04-10T09:01:10;100696.69;;;19.96;30.25
46291;BME280;32023;44.444;26.006;2023-04-10T09:03:39;100692.16;;;19.86;30.11
46291;BME280;32023;44.444;26.006;2023-04-10T09:06:05;100698.97;;;19.94;30.75
46291;BME280;32023;44.444;26.006;2023-04-10T09:08:32;100692.25;;;20.17;30.70
46291;BME280;32023;44.444;26.006;2023-04-10T09:10:59;100692.47;;;20.20;30.56
46291;BME280;32023;44.444;26.006;2023-04-10T09:13:36;100697.41;;;20.37;30.51
46291;BME280;32023;44.444;26.006;2023-04-10T09:16:03;100690.59;;;20.74;29.93
46291;BME280;32023;44.444;26.006;2023-04-10T09:18:47;100694.72;;;21.07;29.45
46291;BME280;32023;44.444;26.006;2023-04-10T09:21:16;100687.03;;;21.44;28.73
46291;BME280;32023;44.444;26.006;2023-04-10T09:23:44;100682.19;;;21.75;28.28
46291;BME280;32023;44.444;26.006;2023-04-10T09:26:30;100685.03;;;21.92;27.89
46291;BME280;32023;44.444;26.006;2023-04-10T09:34:17;100674.13;;;22.51;26.74
46291;BME280;32023;44.444;26.006;2023-04-10T09:36:57;100666.59;;;22.43;26.85
46291;BME280;32023;44.444;26.006;2023-04-10T09:39:38;100665.59;;;22.30;27.02
46291;BME280;32023;44.444;26.006;2023-04-10T09:42:13;100657.50;;;22.12;27.07
46291;BME280;32023;44.444;26.006;2023-04-10T09:44:41;100653.38;;;22.35;26.79
46291;BME280;32023;44.444;26.006;2023-04-10T09:49:51;100644.56;;;22.79;25.84
46291;BME280;32023;44.444;26.006;2023-04-10T09:52:26;100649.81;;;22.98;24.94
46291;BME280;32023;44.444;26.006;2023-04-10T09:54:59;100645.63;;;23.50;24.30
46291;BME280;32023;44.444;26.006;2023-04-10T09:57:28;100637.50;;;23.99;23.74
46291;BME280;32023;44.444;26.006;2023-04-10T09:59:57;100641.66;;;24.43;23.20
46291;BME280;32023;44.444;26.006;2023-04-10T10:02:25;100632.84;;;24.77;22.98
46291;BME280;32023;44.444;26.006;2023-04-10T10:04:53;100629.78;;;24.82;22.69
46291;BME280;32023;44.444;26.006;2023-04-10T10:07:22;100629.13;;;24.98;22.31
46291;BME280;32023;44.444;26.006;2023-04-10T10:09:52;100631.53;;;25.68;21.29
46291;BME280;32023;44.444;26.006;2023-04-10T10:12:34;100618.00;;;26.26;20.56
46291;BME280;32023;44.444;26.006;2023-04-10T10:20:31;100607.22;;;29.45;17.98
46291;BME280;32023;44.444;26.006;2023-04-10T10:23:02;100612.31;;;29.62;17.98
46291;BME280;32023;44.444;26.006;2023-04-10T10:25:36;100607.28;;;30.68;16.83
46291;BME280;32023;44.444;26.006;2023-04-10T10:28:04;100600.34;;;32.15;15.41
46291;BME280;32023;44.444;26.006;2023-04-10T10:30:32;100595.59;;;32.40;15.28
46291;BME280;32023;44.444;26.006;2023-04-10T10:33:07;100601.31;;;31.68;15.94
46291;BME280;32023;44.444;26.006;2023-04-10T10:35:35;100598.06;;;31.73;15.82
46291;BME280;32023;44.444;26.006;2023-04-10T10:38:03;100583.00;;;31.18;15.75
46291;BME280;32023;44.444;26.006;2023-04-10T10:40:38;100587.38;;;31.52;15.67
46291;BME280;32023;44.444;26.006;2023-04-10T10:43:14;100582.63;;;30.42;16.24
46291;BME280;32023;44.444;26.006;2023-04-10T10:46:01;100576.09;;;31.74;15.17
46291;BME280;32023;44.444;26.006;2023-04-10T10:48:28;100565.16;;;33.01;13.83
46291;BME280;32023;44.444;26.006;2023-04-10T10:50:57;100575.63;;;34.24;13.22
46291;BME280;32023;44.444;26.006;2023-04-10T10:53:43;100567.22;;;35.24;12.52
46291;BME280;32023;44.444;26.006;2023-04-10T10:58:55;100557.88;;;35.61;12.31
46291;BME280;32023;44.444;26.006;2023-04-10T11:01:26;100556.03;;;36.76;11.69
46291;BME280;32023;44.444;26.006;2023-04-10T11:03:53;100545.56;;;37.39;11.48
46291;BME280;32023;44.444;26.006;2023-04-10T11:06:49;100545.75;;;37.94;10.80
46291;BME280;32023;44.444;26.006;2023-04-10T11:09:51;100537.97;;;38.31;10.57
46291;BME280;32023;44.444;26.006;2023-04-10T11:12:23;100522.25;;;38.35;10.25
46291;BME280;32023;44.444;26.006;2023-04-10T11:17:56;100524.59;;;37.19;10.20
46291;BME280;32023;44.444;26.006;2023-04-10T11:23:34;100505.88;;;35.59;11.75
46291;BME280;32023;44.444;26.006;2023-04-10T11:26:02;100515.59;;;34.83;12.46
46291;BME280;32023;44.444;26.006;2023-04-10T11:33:41;100500.88;;;29.69;15.92
46291;BME280;32023;44.444;26.006;2023-04-10T11:36:14;100506.91;;;27.63;17.66
46291;BME280;32023;44.444;26.006;2023-04-10T11:39:04;100494.06;;;26.09;19.26
46291;BME280;32023;44.444;26.006;2023-04-10T11:41:35;100493.09;;;26.17;19.78
46291;BME280;32023;44.444;26.006;2023-04-10T11:44:06;100488.78;;;26.35;19.23
46291;BME280;32023;44.444;26.006;2023-04-10T11:46:41;100485.94;;;26.35;19.29
46291;BME280;32023;44.444;26.006;2023-04-10T11:49:09;100493.34;;;26.40;19.40
46291;BME280;32023;44.444;26.006;2023-04-10T11:51:37;100490.16;;;26.72;19.21
46291;BME280;32023;44.444;26.006;2023-04-10T11:56:34;100478.78;;;26.85;18.26
46291;BME280;32023;44.444;26.006;2023-04-10T11:59:04;100472.56;;;26.32;18.79
46291;BME280;32023;44.444;26.006;2023-04-10T12:01:41;100468.63;;;25.65;19.69
46291;BME280;32023;44.444;26.006;2023-04-10T12:04:34;100464.72;;;25.30;20.10
46291;BME280;32023;44.444;26.006;2023-04-10T12:07:01;100464.66;;;24.90;20.49
46291;BME280;32023;44.444;26.006;2023-04-10T12:09:28;100453.25;;;25.11;20.41
46291;BME280;32023;44.444;26.006;2023-04-10T12:12:05;100460.06;;;24.98;20.62
46291;BME280;32023;44.444;26.006;2023-04-10T12:14:34;100448.81;;;24.73;20.93
46291;BME280;32023;44.444;26.006;2023-04-10T12:17:03;100454.19;;;24.42;21.53
46291;BME280;32023;44.444;26.006;2023-04-10T12:19:30;100441.34;;;23.55;22.02
46291;BME280;32023;44.444;26.006;2023-04-10T12:21:59;100442.38;;;22.79;22.98
46291;BME280;32023;44.444;26.006;2023-04-10T12:24:46;100430.06;;;22.63;23.62
46291;BME280;32023;44.444;26.006;2023-04-10T12:27:23;100431.84;;;22.76;23.55
46291;BME280;32023;44.444;26.006;2023-04-10T12:29:55;100424.72;;;22.79;23.63
46291;BME280;32023;44.444;26.006;2023-04-10T12:32:23;100427.94;;;22.60;23.60
46291;BME280;32023;44.444;26.006;2023-04-10T12:34:52;100435.38;;;22.56;23.82
46291;BME280;32023;44.444;26.006;2023-04-10T12:37:24;100414.22;;;22.58;23.63
46291;BME280;32023;44.444;26.006;2023-04-10T12:40:05;100410.81;;;22.82;23.29
46291;BME280;32023;44.444;26.006;2023-04-10T12:42:39;100405.38;;;22.48;23.77
46291;BME280;32023;44.444;26.006;2023-04-10T12:45:09;100400.78;;;22.05;23.84
46291;BME280;32023;44.444;26.006;2023-04-10T12:47:48;100409.59;;;21.78;23.86
46291;BME280;32023;44.444;26.006;2023-04-10T12:50:18;100398.22;;;21.66;24.25
46291;BME280;32023;44.444;26.006;2023-04-10T12:53:02;100400.50;;;21.64;24.40
46291;BME280;32023;44.444;26.006;2023-04-10T12:55:31;100400.50;;;21.64;24.52
46291;BME280;32023;44.444;26.006;2023-04-10T12:58:17;100402.22;;;21.31;25.32
46291;BME280;32023;44.444;26.006;2023-04-10T13:00:50;100402.84;;;21.02;25.24
46291;BME280;32023;44.444;26.006;2023-04-10T13:03:39;100388.03;;;20.84;25.08
46291;BME280;32023;44.444;26.006;2023-04-10T13:06:16;100390.97;;;20.79;25.25
46291;BME280;32023;44.444;26.006;2023-04-10T13:09:04;100385.38;;;20.79;25.47
46291;BME280;32023;44.444;26.006;2023-04-10T13:11:51;100383.34;;;20.54;26.24
46291;BME280;32023;44.444;26.006;2023-04-10T13:14:20;100376.88;;;20.05;26.79
46291;BME280;32023;44.444;26.006;2023-04-10T13:17:06;100378.00;;;19.96;26.90
46291;BME280;32023;44.444;26.006;2023-04-10T13:19:52;100381.50;;;20.01;26.95
46291;BME280;32023;44.444;26.006;2023-04-10T13:22:22;100381.84;;;20.08;26.75
46291;BME280;32023;44.444;26.006;2023-04-10T13:24:49;100373.22;;;20.27;26.19
46291;BME280;32023;44.444;26.006;2023-04-10T13:27:15;100369.47;;;20.32;25.80
46291;BME280;32023;44.444;26.006;2023-04-10T13:29:42;100371.44;;;20.31;25.64
46291;BME280;32023;44.444;26.006;2023-04-10T13:32:09;100370.94;;;19.98;26.48
46291;BME280;32023;44.444;26.006;2023-04-10T13:34:39;100375.09;;;19.70;27.43
46291;BME280;32023;44.444;26.006;2023-04-10T13:37:05;100377.88;;;19.26;28.04
46291;BME280;32023;44.444;26.006;2023-04-10T13:39:41;100367.47;;;19.17;27.88
46291;BME280;32023;44.444;26.006;2023-04-10T13:42:08;100370.63;;;19.02;28.32
46291;BME280;32023;44.444;26.006;2023-04-10T13:44:39;100370.84;;;18.92;28.45
46291;BME280;32023;44.444;26.006;2023-04-10T13:47:12;100371.63;;;18.84;28.61
46291;BME280;32023;44.444;26.006;2023-04-10T13:49:40;100365.03;;;18.80;28.53
46291;BME280;32023;44.444;26.006;2023-04-10T13:52:06;100368.41;;;18.77;28.58
46291;BME280;32023;44.444;26.006;2023-04-10T13:54:45;100373.41;;;18.66;28.83
46291;BME280;32023;44.444;26.006;2023-04-10T13:57:12;100371.16;;;18.68;29.13